Time;durP1;ratioP1;P1;durP2;ratioP2;P2;SDS_P1;SDS_P2;PMS_P1;PMS_P2;Temp;Humidity;BMP_temperature;BMP_pressure;BME280_temperature;BME280_humidity;BME280_pressure;Samples;Min_cycle;Max_cycle;Signal;HPM_P1;HPM_P2
2021/08/07 00:01:53;;;;;;;0.20;0.20;;;25.70;53.00;;;;;;5020350;28;20104;-67
2021/08/07 00:04:20;;;;;;;0.20;0.20;;;25.70;53.00;;;;;;5006691;28;20053;-67
2021/08/07 00:06:47;;;;;;;0.30;0.30;;;25.70;53.00;;;;;;5006720;28;20042;-67
2021/08/07 00:09:14;;;;;;;0.30;0.30;;;25.60;53.00;;;;;;5006458;28;20085;-67
2021/08/07 00:11:41;;;;;;;0.50;0.22;;;25.70;53.00;;;;;;5021465;28;20136;-67
2021/08/07 00:14:09;;;;;;;0.10;0.10;;;25.60;53.00;;;;;;5026039;28;20092;-67
2021/08/07 00:16:37;;;;;;;1.23;0.22;;;25.60;53.00;;;;;;5025929;28;20053;-67
2021/08/07 00:19:04;;;;;;;0.25;0.25;;;25.60;53.00;;;;;;5026474;28;20061;-67
2021/08/07 00:21:32;;;;;;;0.28;0.20;;;25.60;53.00;;;;;;5026053;28;20046;-67
2021/08/07 00:23:59;;;;;;;0.13;0.13;;;25.60;53.00;;;;;;5025880;28;20053;-67
2021/08/07 00:26:27;;;;;;;0.10;0.10;;;25.60;53.10;;;;;;5025840;28;20093;-67
2021/08/07 00:28:54;;;;;;;0.43;0.22;;;25.60;53.10;;;;;;5025633;28;20111;-67
2021/08/07 00:31:21;;;;;;;0.20;0.20;;;25.60;53.70;;;;;;5026124;28;20510;-67
2021/08/07 00:33:48;;;;;;;0.30;0.30;;;25.60;53.10;;;;;;5025772;28;20061;-67
2021/08/07 00:36:15;;;;;;;0.10;0.10;;;25.60;53.10;;;;;;5026134;28;20471;-67
2021/08/07 00:38:43;;;;;;;0.63;0.40;;;25.60;53.10;;;;;;5025682;28;20071;-67
2021/08/07 00:41:10;;;;;;;0.15;0.15;;;25.60;53.10;;;;;;5025467;28;20055;-68
2021/08/07 00:43:37;;;;;;;0.20;0.20;;;25.60;53.20;;;;;;5025620;28;20140;-67
2021/08/07 00:46:04;;;;;;;0.20;0.20;;;25.60;53.10;;;;;;5025772;28;20410;-67
2021/08/07 00:48:31;;;;;;;0.22;0.22;;;25.60;53.20;;;;;;5025617;28;20480;-67
2021/08/07 00:50:59;;;;;;;0.22;0.22;;;25.60;53.20;;;;;;5025201;28;20060;-67
2021/08/07 00:53:27;;;;;;;0.10;0.10;;;25.60;53.20;;;;;;5025309;28;20061;-67
2021/08/07 00:55:54;;;;;;;0.28;0.20;;;25.60;53.20;;;;;;5025678;28;20080;-67
2021/08/07 00:58:21;;;;;;;0.17;0.17;;;25.50;53.20;;;;;;5025402;28;20502;-67
2021/08/07 01:00:48;;;;;;;0.10;0.10;;;25.60;53.30;;;;;;5024924;28;20136;-67
2021/08/07 01:03:39;;;;;;;0.10;0.10;;;25.50;53.20;;;;;;5024970;28;20054;-68
2021/08/07 01:06:23;;;;;;;0.20;0.20;;;25.60;53.30;;;;;;5025601;28;20111;-67
2021/08/07 01:09:08;;;;;;;0.20;0.20;;;25.60;53.30;;;;;;5025317;28;20053;-67
2021/08/07 01:11:59;;;;;;;0.20;0.20;;;25.60;53.20;;;;;;5025215;28;20085;-67
2021/08/07 01:14:42;;;;;;;0.68;0.28;;;25.60;53.20;;;;;;5025413;28;20599;-67
2021/08/07 01:17:14;;;;;;;0.40;0.10;;;25.60;53.70;;;;;;5025054;28;20144;-70
2021/08/07 01:20:11;;;;;;;2.13;0.25;;;25.60;53.20;;;;;;5025394;28;20418;-67
2021/08/07 01:23:02;;;;;;;0.43;0.10;;;25.60;53.20;;;;;;5026447;28;20140;-67
2021/08/07 01:25:49;;;;;;;0.30;0.30;;;25.60;53.20;;;;;;5029270;28;20058;-67
2021/08/07 01:28:17;;;;;;;0.30;0.20;;;25.60;53.20;;;;;;5028524;28;20053;-67
2021/08/07 01:30:48;;;;;;;0.20;0.20;;;25.60;53.20;;;;;;5028162;28;20132;-67
2021/08/07 01:33:18;;;;;;;0.17;0.17;;;25.60;53.20;;;;;;5028938;28;20056;-68
2021/08/07 01:35:48;;;;;;;0.20;0.20;;;25.60;53.20;;;;;;5029016;28;20128;-67
2021/08/07 01:38:15;;;;;;;;;;;25.60;53.20;;;;;;5029860;28;20866;-68
2021/08/07 01:40:42;;;;;;;0.25;0.25;;;25.60;53.20;;;;;;5028979;28;20377;-67
2021/08/07 01:43:10;;;;;;;0.10;0.10;;;25.50;53.20;;;;;;5029360;28;20531;-67
2021/08/07 01:45:38;;;;;;;0.30;0.30;;;25.60;53.20;;;;;;5028734;28;20597;-67
2021/08/07 01:48:11;;;;;;;0.20;0.20;;;25.50;53.20;;;;;;5029164;28;20459;-67
2021/08/07 01:50:50;;;;;;;0.20;0.20;;;25.50;53.20;;;;;;5043918;28;20096;-67
2021/08/07 01:53:23;;;;;;;0.20;0.20;;;25.50;53.20;;;;;;5028655;28;20089;-68
2021/08/07 01:56:08;;;;;;;0.35;0.20;;;25.50;53.20;;;;;;5043569;28;20089;-67
2021/08/07 01:58:48;;;;;;;0.10;0.10;;;25.50;53.20;;;;;;5028715;28;20136;-67
2021/08/07 02:01:16;;;;;;;0.30;0.28;;;25.50;53.20;;;;;;5029099;28;20049;-67
2021/08/07 02:03:45;;;;;;;0.20;0.20;;;25.50;53.20;;;;;;5028789;28;20065;-67
2021/08/07 02:06:14;;;;;;;0.20;0.20;;;25.50;53.30;;;;;;5028615;28;20450;-67
2021/08/07 02:08:41;;;;;;;0.10;0.10;;;25.50;53.20;;;;;;5028194;28;20490;-67
2021/08/07 02:11:09;;;;;;;0.30;0.30;;;25.50;53.30;;;;;;5028593;28;20049;-67
2021/08/07 02:13:38;;;;;;;0.20;0.20;;;25.50;53.20;;;;;;5028530;28;20510;-67
2021/08/07 02:16:07;;;;;;;0.38;0.28;;;25.50;53.20;;;;;;5028375;28;20132;-67
2021/08/07 02:18:35;;;;;;;0.22;0.22;;;25.50;53.30;;;;;;5028505;28;20053;-67
2021/08/07 02:21:02;;;;;;;0.17;0.10;;;25.50;53.20;;;;;;5028447;28;20136;-67
2021/08/07 02:23:30;;;;;;;1.38;0.40;;;25.50;53.30;;;;;;5028426;28;20088;-67
2021/08/07 02:26:02;;;;;;;0.63;0.20;;;25.50;53.20;;;;;;5028170;28;20088;-67
2021/08/07 02:28:30;;;;;;;0.20;0.20;;;25.50;53.20;;;;;;5028049;28;20057;-67
2021/08/07 02:30:59;;;;;;;0.20;0.20;;;25.50;53.30;;;;;;5028133;28;20152;-67
2021/08/07 02:33:28;;;;;;;0.10;0.10;;;25.50;53.20;;;;;;5027613;28;20049;-67
2021/08/07 02:35:57;;;;;;;0.10;0.10;;;25.50;53.20;;;;;;5027411;28;20056;-67
2021/08/07 02:38:26;;;;;;;0.13;0.13;;;25.50;53.30;;;;;;5028649;28;20049;-67
2021/08/07 02:40:55;;;;;;;0.32;0.30;;;25.50;53.30;;;;;;5027628;28;20054;-67
2021/08/07 02:43:23;;;;;;;1.00;0.17;;;25.50;53.80;;;;;;5028200;28;20089;-67
2021/08/07 02:45:51;;;;;;;1.40;0.30;;;25.50;53.30;;;;;;5027495;28;20152;-67
2021/08/07 02:48:20;;;;;;;0.25;0.22;;;25.50;53.30;;;;;;5028013;28;20053;-67
2021/08/07 02:50:47;;;;;;;0.10;0.10;;;25.50;53.30;;;;;;5027753;28;20136;-67
2021/08/07 02:53:16;;;;;;;0.28;0.10;;;25.50;53.20;;;;;;5028052;28;20080;-67
2021/08/07 02:55:44;;;;;;;0.22;0.22;;;25.50;53.20;;;;;;5027466;28;20168;-67
2021/08/07 02:58:12;;;;;;;0.10;0.10;;;25.50;53.20;;;;;;5027495;28;20140;-67
2021/08/07 03:00:40;;;;;;;0.30;0.30;;;25.50;53.20;;;;;;5021472;28;20054;-67
2021/08/07 03:03:07;;;;;;;0.20;0.20;;;25.50;53.20;;;;;;5011522;28;20104;-67
2021/08/07 03:05:34;;;;;;;0.10;0.10;;;25.50;53.20;;;;;;5008093;28;20050;-67
2021/08/07 03:08:01;;;;;;;0.17;0.17;;;25.50;53.20;;;;;;5027452;28;20943;-67
2021/08/07 03:10:29;;;;;;;0.40;0.20;;;25.50;53.20;;;;;;5027013;28;20501;-67
2021/08/07 03:12:57;;;;;;;0.20;0.20;;;25.50;53.20;;;;;;5027535;28;20536;-67
2021/08/07 03:15:24;;;;;;;0.10;0.10;;;25.50;53.20;;;;;;5027355;28;20057;-67
2021/08/07 03:17:52;;;;;;;0.20;0.15;;;25.50;53.20;;;;;;5024458;28;20136;-67
2021/08/07 03:20:19;;;;;;;0.30;0.30;;;25.50;53.20;;;;;;5007877;28;20054;-67
2021/08/07 03:22:46;;;;;;;0.77;0.30;;;25.50;53.20;;;;;;5007413;28;20129;-67
2021/08/07 03:25:14;;;;;;;0.20;0.20;;;25.50;53.20;;;;;;5018764;28;20049;-67
2021/08/07 03:27:42;;;;;;;0.38;0.28;;;25.50;53.20;;;;;;5027712;28;20585;-67
2021/08/07 03:30:09;;;;;;;0.10;0.10;;;25.50;53.20;;;;;;5026790;28;20099;-67
2021/08/07 03:32:36;;;;;;;0.47;0.47;;;25.50;53.20;;;;;;5026836;28;20059;-67
2021/08/07 03:35:05;;;;;;;0.10;0.10;;;25.50;53.20;;;;;;5026866;28;20087;-67
2021/08/07 03:37:33;;;;;;;0.20;0.20;;;25.50;53.30;;;;;;5026814;28;20057;-70
2021/08/07 03:40:00;;;;;;;0.13;0.13;;;25.50;53.20;;;;;;5026784;28;20589;-67
2021/08/07 03:42:27;;;;;;;0.20;0.20;;;25.50;53.30;;;;;;5026697;28;20478;-67
2021/08/07 03:44:55;;;;;;;0.10;0.10;;;25.50;53.20;;;;;;5026473;28;20459;-67
2021/08/07 03:47:22;;;;;;;0.20;0.20;;;25.50;53.30;;;;;;5026320;28;20057;-67
2021/08/07 03:49:50;;;;;;;0.20;0.20;;;25.50;53.30;;;;;;5025699;28;20053;-67
2021/08/07 03:52:17;;;;;;;0.20;0.20;;;25.50;53.30;;;;;;5026267;28;20548;-67
2021/08/07 03:54:44;;;;;;;0.43;0.17;;;25.50;53.30;;;;;;5022595;28;20088;-67
2021/08/07 03:57:11;;;;;;;0.20;0.20;;;25.50;53.20;;;;;;5006788;28;20136;-67
2021/08/07 03:59:38;;;;;;;0.88;0.40;;;25.50;53.20;;;;;;5006623;28;20056;-67
2021/08/07 04:02:05;;;;;;;0.20;0.20;;;25.50;53.20;;;;;;5007060;28;20136;-67
2021/08/07 04:04:33;;;;;;;0.28;0.28;;;25.50;53.20;;;;;;5006760;28;20132;-67
2021/08/07 04:07:00;;;;;;;0.13;0.13;;;25.50;53.20;;;;;;5006636;28;20281;-67
2021/08/07 04:09:27;;;;;;;0.20;0.20;;;25.50;53.10;;;;;;5026223;28;20132;-67
2021/08/07 04:11:54;;;;;;;0.10;0.10;;;25.50;53.20;;;;;;5026070;28;20143;-67
2021/08/07 04:14:21;;;;;;;0.10;0.10;;;25.50;53.10;;;;;;5026498;28;20127;-67
2021/08/07 04:16:49;;;;;;;0.75;0.20;;;25.60;53.10;;;;;;5025833;28;20101;-67
2021/08/07 04:19:16;;;;;;;0.30;0.30;;;25.60;53.10;;;;;;5026328;28;20140;-67
2021/08/07 04:21:43;;;;;;;0.45;0.10;;;25.60;53.10;;;;;;5040986;28;20049;-67
2021/08/07 04:24:10;;;;;;;0.10;0.10;;;25.60;53.10;;;;;;5022303;28;20281;-67
2021/08/07 04:26:38;;;;;;;0.13;0.13;;;25.60;53.00;;;;;;5015786;28;20380;-67
2021/08/07 04:29:05;;;;;;;0.20;0.20;;;25.60;53.00;;;;;;5013921;28;20551;-66
2021/08/07 04:31:32;;;;;;;0.20;0.10;;;25.60;53.00;;;;;;5011432;28;20441;-66
2021/08/07 04:33:59;;;;;;;0.55;0.20;;;25.70;52.90;;;;;;5006206;28;20068;-67
2021/08/07 04:36:26;;;;;;;0.10;0.10;;;25.70;52.90;;;;;;5004281;28;20521;-67
2021/08/07 04:38:54;;;;;;;0.20;0.20;;;25.70;52.90;;;;;;5006506;28;20046;-67
2021/08/07 04:41:21;;;;;;;0.20;0.20;;;25.70;52.80;;;;;;5005875;28;20486;-67
2021/08/07 04:43:48;;;;;;;0.10;0.10;;;25.70;52.80;;;;;;5006207;28;20129;-67
2021/08/07 04:46:15;;;;;;;0.63;0.20;;;25.70;52.70;;;;;;5005909;28;20054;-66
2021/08/07 04:48:42;;;;;;;0.30;0.30;;;25.70;52.70;;;;;;5005893;28;20560;-66
2021/08/07 04:51:10;;;;;;;0.20;0.20;;;25.70;52.70;;;;;;5005621;28;20096;-66
2021/08/07 04:53:37;;;;;;;0.20;0.20;;;25.80;52.70;;;;;;5006193;28;20081;-66
2021/08/07 04:56:05;;;;;;;0.30;0.30;;;25.80;52.60;;;;;;5020900;28;20060;-67
2021/08/07 04:58:32;;;;;;;0.20;0.20;;;25.80;52.60;;;;;;5024943;28;20494;-67
2021/08/07 05:00:59;;;;;;;0.40;0.30;;;25.80;52.50;;;;;;5025592;28;20498;-67
2021/08/07 05:03:26;;;;;;;0.85;0.57;;;25.80;52.50;;;;;;5025382;28;20136;-66
2021/08/07 05:05:54;;;;;;;0.52;0.30;;;25.80;52.40;;;;;;5025401;28;20068;-67
2021/08/07 05:08:21;;;;;;;0.20;0.20;;;25.80;52.40;;;;;;5025024;28;20502;-67
2021/08/07 05:10:48;;;;;;;0.40;0.20;;;25.80;52.50;;;;;;5023485;28;20103;-68
2021/08/07 05:13:15;;;;;;;0.30;0.15;;;25.80;52.50;;;;;;5025323;28;20418;-67
2021/08/07 05:15:43;;;;;;;0.40;0.40;;;25.70;52.50;;;;;;5025535;28;20095;-66
2021/08/07 05:18:10;;;;;;;0.50;0.50;;;25.70;52.70;;;;;;5025330;28;20049;-66
2021/08/07 05:20:37;;;;;;;0.30;0.30;;;25.60;52.80;;;;;;5025376;28;20084;-66
2021/08/07 05:23:04;;;;;;;0.77;0.40;;;25.50;53.00;;;;;;5024953;28;20049;-66
2021/08/07 05:25:31;;;;;;;0.30;0.30;;;25.40;53.20;;;;;;5025313;28;20060;-67
2021/08/07 05:27:59;;;;;;;0.40;0.40;;;25.20;53.30;;;;;;5024761;28;20136;-67
2021/08/07 05:30:26;;;;;;;0.30;0.30;;;25.10;53.30;;;;;;5025190;28;20132;-67
2021/08/07 05:32:53;;;;;;;0.47;0.47;;;24.90;53.20;;;;;;5025533;28;20128;-67
2021/08/07 05:35:20;;;;;;;0.50;0.50;;;24.80;53.20;;;;;;5024899;28;20573;-67
2021/08/07 05:37:47;;;;;;;0.80;0.80;;;24.60;53.30;;;;;;5024971;28;20041;-66
2021/08/07 05:40:15;;;;;;;0.95;0.47;;;24.50;53.60;;;;;;5024745;28;20049;-67
2021/08/07 05:42:42;;;;;;;0.50;0.50;;;24.30;53.80;;;;;;5025159;28;20077;-67
2021/08/07 05:45:09;;;;;;;0.70;0.70;;;24.20;54.00;;;;;;5025441;28;20049;-67
2021/08/07 05:47:37;;;;;;;0.63;0.60;;;24.10;54.10;;;;;;5024902;28;20127;-67
2021/08/07 05:50:05;;;;;;;0.52;0.52;;;23.90;54.50;;;;;;5025090;28;20077;-67
2021/08/07 05:52:32;;;;;;;0.75;0.60;;;23.90;54.70;;;;;;5025094;28;20085;-67
2021/08/07 05:54:59;;;;;;;0.70;0.45;;;23.80;54.70;;;;;;5018866;28;20129;-67
2021/08/07 05:57:26;;;;;;;0.47;0.47;;;23.70;54.80;;;;;;5005346;28;20081;-67
2021/08/07 05:59:53;;;;;;;0.60;0.60;;;23.60;55.00;;;;;;5012413;28;20073;-67
2021/08/07 06:02:21;;;;;;;0.95;0.60;;;23.60;55.20;;;;;;5024665;28;20053;-67
2021/08/07 06:04:49;;;;;;;0.45;0.40;;;23.50;55.30;;;;;;5024908;28;20502;-67
2021/08/07 06:07:17;;;;;;;0.73;0.50;;;23.50;55.40;;;;;;5024998;28;20057;-67
2021/08/07 06:09:44;;;;;;;0.52;0.52;;;23.40;55.70;;;;;;5026053;28;20087;-66
2021/08/07 06:12:11;;;;;;;0.75;0.55;;;23.40;55.70;;;;;;5028607;28;20053;-67
2021/08/07 06:14:39;;;;;;;0.35;0.35;;;23.30;55.60;;;;;;5028459;28;20064;-67
2021/08/07 06:17:06;;;;;;;0.52;0.52;;;23.30;55.90;;;;;;5028500;28;20192;-67
2021/08/07 06:19:34;;;;;;;0.70;0.70;;;23.20;55.80;;;;;;5028194;28;20413;-67
2021/08/07 06:22:02;;;;;;;0.47;0.47;;;23.20;55.90;;;;;;5028515;28;20049;-68
2021/08/07 06:24:30;;;;;;;1.45;0.57;;;23.20;56.00;;;;;;5028080;28;20054;-67
2021/08/07 06:26:57;;;;;;;0.35;0.35;;;23.10;56.10;;;;;;5028073;28;20133;-67
2021/08/07 06:29:24;;;;;;;0.30;0.30;;;23.10;56.40;;;;;;5028072;28;20132;-67
2021/08/07 06:31:51;;;;;;;0.40;0.40;;;23.10;56.50;;;;;;5027847;28;20104;-67
2021/08/07 06:34:18;;;;;;;0.40;0.40;;;23.10;56.60;;;;;;5027704;28;20049;-67
2021/08/07 06:36:45;;;;;;;0.80;0.80;;;23.10;56.60;;;;;;5028083;28;20133;-67
2021/08/07 06:39:13;;;;;;;0.50;0.50;;;23.10;56.70;;;;;;5027954;28;20095;-67
2021/08/07 06:41:40;;;;;;;0.88;0.82;;;23.10;56.70;;;;;;5027303;28;20060;-67
2021/08/07 06:44:07;;;;;;;0.50;0.50;;;23.10;56.80;;;;;;5028015;28;20057;-67
2021/08/07 06:46:34;;;;;;;0.65;0.55;;;23.10;56.90;;;;;;5027925;28;20141;-67
2021/08/07 06:49:02;;;;;;;0.85;0.40;;;23.10;56.90;;;;;;5027703;28;20057;-67
2021/08/07 06:51:30;;;;;;;0.55;0.55;;;23.10;56.90;;;;;;5027142;28;20520;-67
2021/08/07 06:53:57;;;;;;;0.50;0.50;;;23.10;56.90;;;;;;5028175;28;20059;-67
2021/08/07 06:56:24;;;;;;;0.65;0.40;;;23.10;57.10;;;;;;5009868;28;20502;-67
2021/08/07 06:58:51;;;;;;;0.50;0.50;;;23.10;57.10;;;;;;5007340;28;20578;-67
2021/08/07 07:01:18;;;;;;;0.60;0.60;;;23.10;57.10;;;;;;5023613;28;20089;-67
2021/08/07 07:03:46;;;;;;;1.27;0.55;;;23.10;57.00;;;;;;5027592;28;20494;-67
2021/08/07 07:06:13;;;;;;;0.60;0.60;;;23.10;57.00;;;;;;5027506;28;20064;-67
2021/08/07 07:08:40;;;;;;;0.40;0.40;;;23.10;57.00;;;;;;5026080;28;20512;-67
2021/08/07 07:11:07;;;;;;;0.75;0.75;;;23.10;57.00;;;;;;5012239;28;20057;-67
2021/08/07 07:13:34;;;;;;;0.57;0.57;;;23.10;56.90;;;;;;5041370;28;20565;-67
2021/08/07 07:16:02;;;;;;;0.40;0.40;;;23.10;57.00;;;;;;5031496;28;20081;-67
2021/08/07 07:18:29;;;;;;;0.47;0.47;;;23.10;56.90;;;;;;5026232;28;20056;-67
2021/08/07 07:20:56;;;;;;;0.50;0.50;;;23.10;56.90;;;;;;5026036;28;20501;-67
2021/08/07 07:23:23;;;;;;;0.50;0.50;;;23.10;57.00;;;;;;5027111;28;20140;-67
2021/08/07 07:25:52;;;;;;;0.43;0.43;;;23.10;57.00;;;;;;5027298;28;20049;-67
2021/08/07 07:28:20;;;;;;;0.35;0.35;;;23.10;57.00;;;;;;5027228;28;20107;-67
2021/08/07 07:30:48;;;;;;;0.52;0.52;;;23.10;57.00;;;;;;5027184;28;20049;-67
2021/08/07 07:33:15;;;;;;;0.55;0.43;;;23.10;57.00;;;;;;5027216;28;20548;-67
2021/08/07 07:35:42;;;;;;;0.40;0.40;;;23.10;57.00;;;;;;5027192;28;20395;-71
2021/08/07 07:38:09;;;;;;;0.82;0.70;;;23.20;56.90;;;;;;5026811;28;20053;-69
2021/08/07 07:40:36;;;;;;;0.40;0.35;;;23.20;56.90;;;;;;5023487;28;20057;-68
2021/08/07 07:43:03;;;;;;;0.47;0.47;;;23.20;56.80;;;;;;5025713;28;20056;-67
2021/08/07 07:45:30;;;;;;;0.30;0.30;;;23.20;56.70;;;;;;5026786;28;20103;-68
2021/08/07 07:47:58;;;;;;;0.38;0.38;;;23.20;56.70;;;;;;5024081;28;20053;-68
2021/08/07 07:50:25;;;;;;;0.50;0.50;;;23.20;56.70;;;;;;5025760;28;20051;-69
2021/08/07 07:52:52;;;;;;;0.35;0.35;;;23.20;56.70;;;;;;5026518;28;20148;-68
2021/08/07 07:55:19;;;;;;;0.50;0.50;;;23.20;56.70;;;;;;5023960;28;20053;-68
2021/08/07 07:57:47;;;;;;;0.65;0.63;;;23.20;56.70;;;;;;5026423;28;20050;-68
2021/08/07 08:00:14;;;;;;;0.50;0.50;;;23.20;56.70;;;;;;5025153;28;20119;-69
2021/08/07 08:02:41;;;;;;;1.10;0.50;;;23.20;56.70;;;;;;5025097;28;20063;-66
2021/08/07 08:05:09;;;;;;;0.40;0.40;;;23.20;56.70;;;;;;5024831;28;20049;-66
2021/08/07 08:07:41;;;;;;;0.63;0.63;;;23.20;56.70;;;;;;5023818;28;20049;-66
2021/08/07 08:10:10;;;;;;;0.60;0.60;;;23.30;56.70;;;;;;5026233;28;20136;-68
2021/08/07 08:12:38;;;;;;;0.60;0.60;;;23.30;56.70;;;;;;5025155;28;20075;-68
2021/08/07 08:15:07;;;;;;;0.22;0.22;;;23.30;56.70;;;;;;5026029;28;20073;-68
2021/08/07 08:17:35;;;;;;;0.70;0.70;;;23.30;56.70;;;;;;5026109;28;20060;-68
2021/08/07 08:20:04;;;;;;;0.45;0.45;;;23.30;56.70;;;;;;5026218;28;20084;-68
2021/08/07 08:22:32;;;;;;;0.50;0.50;;;23.30;56.70;;;;;;5026171;28;20149;-68
2021/08/07 08:25:00;;;;;;;0.40;0.40;;;23.40;56.80;;;;;;5026134;28;20053;-68
2021/08/07 08:27:27;;;;;;;0.40;0.40;;;23.40;56.80;;;;;;5026119;28;20059;-68
2021/08/07 08:29:57;;;;;;;0.28;0.28;;;23.40;56.80;;;;;;5025497;28;20148;-68
2021/08/07 08:32:24;;;;;;;0.40;0.40;;;23.40;56.80;;;;;;5024846;28;20148;-69
2021/08/07 08:34:51;;;;;;;0.52;0.50;;;23.40;56.90;;;;;;5026110;28;20160;-69
2021/08/07 08:37:18;;;;;;;0.98;0.30;;;23.40;56.80;;;;;;5026116;28;20053;-68
2021/08/07 08:39:45;;;;;;;0.68;0.57;;;23.40;56.80;;;;;;5025405;28;20516;-68
2021/08/07 08:42:12;;;;;;;0.70;0.50;;;23.40;56.80;;;;;;5025614;28;20057;-68
2021/08/07 08:44:39;;;;;;;0.50;0.50;;;23.40;56.70;;;;;;5025878;28;20084;-69
2021/08/07 08:47:08;;;;;;;0.65;0.65;;;23.40;56.70;;;;;;5025594;28;20156;-68
2021/08/07 08:49:35;;;;;;;0.50;0.50;;;23.50;56.70;;;;;;5025109;28;20136;-68
2021/08/07 08:52:03;;;;;;;0.70;0.60;;;23.50;56.60;;;;;;5025400;28;20063;-68
2021/08/07 08:54:30;;;;;;;0.40;0.30;;;23.50;56.60;;;;;;5025614;28;20059;-69
2021/08/07 08:56:57;;;;;;;0.70;0.70;;;23.50;56.60;;;;;;5025348;28;20060;-71
2021/08/07 08:59:24;;;;;;;0.70;0.70;;;23.50;56.70;;;;;;5025558;28;20051;-67
2021/08/07 09:01:52;;;;;;;0.68;0.68;;;23.50;56.70;;;;;;5025724;28;20132;-68
2021/08/07 09:04:23;;;;;;;0.70;0.70;;;23.50;56.70;;;;;;5025806;28;20053;-68
2021/08/07 09:06:50;;;;;;;0.60;0.60;;;23.50;56.70;;;;;;5025303;28;20132;-68
2021/08/07 09:09:33;;;;;;;0.50;0.50;;;23.50;56.70;;;;;;5025658;28;20053;-68
2021/08/07 09:12:00;;;;;;;0.50;0.50;;;23.50;56.70;;;;;;5025522;28;20484;-68
2021/08/07 09:14:30;;;;;;;0.75;0.75;;;23.50;56.60;;;;;;5025379;28;20056;-68
2021/08/07 09:17:08;;;;;;;0.50;0.50;;;23.50;56.60;;;;;;5025278;28;20049;-68
2021/08/07 09:19:51;;;;;;;0.50;0.50;;;23.50;56.60;;;;;;5025329;28;20374;-68
2021/08/07 09:22:25;;;;;;;0.47;0.47;;;23.60;56.70;;;;;;5025532;28;20133;-68
2021/08/07 09:25:12;;;;;;;0.60;0.60;;;23.60;56.70;;;;;;5025165;28;20141;-68
2021/08/07 09:27:45;;;;;;;0.70;0.60;;;23.60;56.70;;;;;;5025414;28;20053;-68
2021/08/07 09:30:31;;;;;;;0.93;0.73;;;23.60;56.60;;;;;;5025313;28;20058;-68
2021/08/07 09:33:01;;;;;;;0.50;0.50;;;23.60;56.70;;;;;;5025314;28;20057;-68
2021/08/07 09:35:32;;;;;;;0.70;0.70;;;23.60;56.70;;;;;;5025545;28;20072;-68
2021/08/07 09:38:11;;;;;;;;;;;23.60;56.60;;;;;;5025867;28;20525;-68
2021/08/07 09:41:01;;;;;;;0.45;0.45;;;23.60;56.60;;;;;;5023856;28;19924;-68
2021/08/07 09:43:45;;;;;;;0.70;0.70;;;23.60;56.60;;;;;;5026552;28;20081;-68
2021/08/07 09:46:23;;;;;;;0.57;0.57;;;23.60;56.60;;;;;;5029078;28;20049;-68
2021/08/07 09:48:55;;;;;;;0.80;0.80;;;23.70;56.70;;;;;;5028796;28;20068;-68
2021/08/07 09:51:28;;;;;;;1.15;0.80;;;23.60;56.60;;;;;;5028902;28;20060;-68
2021/08/07 09:54:09;;;;;;;1.05;0.95;;;23.70;56.70;;;;;;5028768;28;20579;-68
2021/08/07 09:56:57;;;;;;;0.80;0.80;;;23.60;56.60;;;;;;5009305;28;20064;-68
2021/08/07 09:59:29;;;;;;;0.68;0.68;;;23.70;56.70;;;;;;5008937;28;20141;-68
2021/08/07 10:01:57;;;;;;;0.80;0.80;;;23.70;56.70;;;;;;5007932;28;20137;-68
2021/08/07 10:04:37;;;;;;;1.25;1.00;;;23.70;56.60;;;;;;5009246;28;20414;-68
2021/08/07 10:07:09;;;;;;;0.87;0.87;;;23.70;56.60;;;;;;5008958;28;20133;-68
2021/08/07 10:09:37;;;;;;;0.68;0.68;;;23.70;56.50;;;;;;5009170;28;20056;-68
2021/08/07 10:12:07;;;;;;;0.90;0.90;;;23.70;56.50;;;;;;5008966;28;20414;-68
2021/08/07 10:14:37;;;;;;;0.60;0.60;;;23.70;56.50;;;;;;5008894;28;20050;-68
2021/08/07 10:17:07;;;;;;;0.80;0.80;;;23.70;56.50;;;;;;5008989;28;20054;-68
2021/08/07 10:19:35;;;;;;;0.80;0.80;;;23.70;56.50;;;;;;5008485;28;20063;-67
2021/08/07 10:22:08;;;;;;;0.68;0.68;;;23.70;56.40;;;;;;5009031;28;20058;-68
2021/08/07 10:24:38;;;;;;;0.70;0.70;;;23.70;56.50;;;;;;5008659;28;20085;-68
2021/08/07 10:27:06;;;;;;;0.77;0.77;;;23.70;56.40;;;;;;5008331;28;20161;-68
2021/08/07 10:29:45;;;;;;;1.08;0.90;;;23.70;56.40;;;;;;5008785;28;20479;-68
2021/08/07 10:32:15;;;;;;;0.82;0.82;;;23.70;56.30;;;;;;5019798;28;20081;-68
2021/08/07 10:34:53;;;;;;;1.37;0.93;;;23.70;56.30;;;;;;5008329;28;20157;-68
2021/08/07 10:37:20;;;;;;;1.42;1.35;;;23.70;56.30;;;;;;5023053;28;20049;-68
2021/08/07 10:39:49;;;;;;;0.85;0.85;;;23.70;56.30;;;;;;5028365;28;20142;-68
2021/08/07 10:42:18;;;;;;;1.00;0.90;;;23.80;56.30;;;;;;5027935;28;20059;-68
2021/08/07 10:44:47;;;;;;;0.98;0.98;;;23.80;56.30;;;;;;5028004;28;20144;-68
2021/08/07 10:47:14;;;;;;;1.08;1.08;;;23.70;56.20;;;;;;5027819;28;20581;-68
2021/08/07 10:49:45;;;;;;;1.00;1.00;;;23.70;56.10;;;;;;5012066;28;20129;-68
2021/08/07 10:52:36;;;;;;;1.30;1.20;;;23.80;56.70;;;;;;5007776;28;20136;-67
2021/08/07 10:55:03;;;;;;;0.90;0.90;;;23.80;56.20;;;;;;5007237;28;20092;-68
2021/08/07 10:57:37;;;;;;;0.93;0.93;;;23.80;56.10;;;;;;5007790;28;20136;-68
2021/08/07 11:00:26;;;;;;;1.00;1.00;;;23.80;56.10;;;;;;5007790;28;20556;-68
2021/08/07 11:03:12;;;;;;;0.82;0.82;;;23.80;56.10;;;;;;5011956;28;20133;-68
2021/08/07 11:05:53;;;;;;;1.00;1.00;;;23.80;56.20;;;;;;5018592;28;20449;-67
2021/08/07 11:08:20;;;;;;;1.00;1.00;;;23.80;56.20;;;;;;5026750;28;20055;-67
2021/08/07 11:10:47;;;;;;;0.98;0.98;;;23.80;56.20;;;;;;5027689;28;20053;-68
2021/08/07 11:13:26;;;;;;;1.00;1.00;;;23.80;56.20;;;;;;5042397;28;20140;-68
2021/08/07 11:16:18;;;;;;;1.70;0.90;;;23.80;56.30;;;;;;5026833;28;20140;-68
2021/08/07 11:18:46;;;;;;;0.90;0.90;;;23.80;56.30;;;;;;5027181;28;20132;-67
2021/08/07 11:21:53;;;;;;;1.08;1.08;;;23.80;56.20;;;;;;5027336;28;20049;-68
2021/08/07 11:24:54;;;;;;;2.08;1.10;;;23.80;56.30;;;;;;5025739;28;20561;-67
2021/08/07 11:28:03;;;;;;;0.90;0.90;;;23.80;56.30;;;;;;5025778;28;20061;-67
2021/08/07 11:30:37;;;;;;;0.90;0.90;;;23.80;56.20;;;;;;5026972;28;20055;-67
2021/08/07 11:33:22;;;;;;;1.10;1.10;;;23.80;56.20;;;;;;5026766;28;20400;-68
2021/08/07 11:36:10;;;;;;;0.95;0.95;;;23.80;56.30;;;;;;5027296;28;20045;-67
2021/08/07 11:38:58;;;;;;;1.20;1.20;;;23.80;56.20;;;;;;5026810;28;20079;-68
2021/08/07 11:41:34;;;;;;;0.80;0.80;;;23.80;56.20;;;;;;5026296;28;20056;-68
2021/08/07 11:44:02;;;;;;;1.27;1.17;;;23.80;56.10;;;;;;5016941;28;20510;-67
2021/08/07 11:46:37;;;;;;;0.80;0.80;;;23.80;56.00;;;;;;5023431;28;20079;-67
2021/08/07 11:49:06;;;;;;;1.08;1.08;;;23.80;56.00;;;;;;5022313;28;20459;-68
2021/08/07 11:51:36;;;;;;;1.00;1.00;;;23.80;56.00;;;;;;5027017;28;20154;-68
2021/08/07 11:54:04;;;;;;;1.10;1.00;;;23.80;56.00;;;;;;5026566;28;20513;-67
2021/08/07 11:56:35;;;;;;;0.80;0.80;;;23.80;56.00;;;;;;5026097;28;20140;-68
2021/08/07 11:59:04;;;;;;;1.00;1.00;;;23.80;56.00;;;;;;5026720;28;20060;-68
2021/08/07 12:01:37;;;;;;;1.15;1.10;;;23.80;56.00;;;;;;5019085;28;20104;-68
2021/08/07 12:04:06;;;;;;;1.08;0.93;;;23.80;56.00;;;;;;5006533;28;20129;-67
2021/08/07 12:06:38;;;;;;;0.80;0.80;;;23.80;56.00;;;;;;5006636;28;20054;-67
2021/08/07 12:09:11;;;;;;;1.20;1.10;;;23.80;56.00;;;;;;5006601;28;20056;-68
2021/08/07 12:11:40;;;;;;;0.90;0.90;;;23.80;55.90;;;;;;5006650;28;20050;-68
2021/08/07 12:14:10;;;;;;;1.25;1.15;;;23.90;56.00;;;;;;5006436;28;20050;-68
2021/08/07 12:16:42;;;;;;;1.67;1.52;;;23.90;56.00;;;;;;5006773;28;20054;-68
2021/08/07 12:19:18;;;;;;;0.90;0.90;;;23.90;56.00;;;;;;5005328;28;20058;-68
2021/08/07 12:21:45;;;;;;;1.40;0.80;;;23.90;56.10;;;;;;5006693;28;20145;-67
2021/08/07 12:24:20;;;;;;;0.90;0.90;;;23.90;56.10;;;;;;5006250;28;20457;-68
2021/08/07 12:26:53;;;;;;;0.88;0.88;;;23.90;56.10;;;;;;5006111;28;20060;-67
2021/08/07 12:29:23;;;;;;;1.05;1.05;;;23.90;56.10;;;;;;5008791;28;20168;-68
2021/08/07 12:31:56;;;;;;;0.77;0.77;;;23.90;56.30;;;;;;5025945;28;20059;-68
2021/08/07 12:34:25;;;;;;;1.00;1.00;;;23.90;56.30;;;;;;5025854;28;20053;-67
2021/08/07 12:37:11;;;;;;;1.00;1.00;;;23.90;56.30;;;;;;5026150;28;20095;-67
2021/08/07 12:39:44;;;;;;;0.90;0.90;;;24.00;56.30;;;;;;5021216;28;20054;-67
2021/08/07 12:42:15;;;;;;;0.95;0.95;;;24.00;56.30;;;;;;5006390;28;20240;-68
2021/08/07 12:44:54;;;;;;;1.10;1.10;;;24.00;56.20;;;;;;5005992;28;20057;-67
2021/08/07 12:47:29;;;;;;;1.10;1.10;;;24.00;56.40;;;;;;5006100;28;20443;-67
2021/08/07 12:50:09;;;;;;;0.88;0.88;;;24.00;56.40;;;;;;5005797;28;20068;-68
2021/08/07 12:52:50;;;;;;;1.25;0.93;;;24.00;56.40;;;;;;5023801;28;20099;-68
2021/08/07 12:55:20;;;;;;;1.50;1.40;;;24.00;56.40;;;;;;5025310;28;20089;-68
2021/08/07 12:57:47;;;;;;;1.30;1.20;;;24.00;56.50;;;;;;5025667;28;20502;-68
2021/08/07 13:00:26;;;;;;;1.13;1.13;;;24.10;56.40;;;;;;5025166;28;20079;-68
2021/08/07 13:03:05;;;;;;;2.20;1.27;;;24.10;56.50;;;;;;5025743;28;20522;-68
2021/08/07 13:05:33;;;;;;;1.27;1.08;;;24.10;56.50;;;;;;5025508;28;20488;-68